createdAt,value
2017-08-19T00:01:40.565Z,29.37
2017-08-19T00:04:06.646Z,29.50
2017-08-19T00:06:32.716Z,23.67
2017-08-19T00:08:58.773Z,23.80
2017-08-19T00:11:24.817Z,23.73
2017-08-19T00:13:50.869Z,24.30
2017-08-19T00:16:16.928Z,24.13
2017-08-19T00:18:43.748Z,22.20
2017-08-19T00:21:09.812Z,21.33
2017-08-19T00:23:35.897Z,17.97
2017-08-19T00:26:01.961Z,19.63
2017-08-19T00:28:27.997Z,21.60
2017-08-19T00:30:54.808Z,20.87
2017-08-19T00:33:21.605Z,16.77
2017-08-19T00:35:47.686Z,18.70
2017-08-19T00:38:13.728Z,18.50
2017-08-19T00:40:39.793Z,19.87
2017-08-19T00:43:05.860Z,13.30
2017-08-19T00:45:31.905Z,16.60
2017-08-19T00:47:58.026Z,16.50
2017-08-19T00:50:24.065Z,14.57
2017-08-19T00:52:50.146Z,16.40
2017-08-19T00:55:16.189Z,14.30
2017-08-19T00:57:42.265Z,15.03
2017-08-19T01:00:08.305Z,13.20
2017-08-19T01:02:34.382Z,14.07
2017-08-19T01:05:00.445Z,13.90
2017-08-19T01:07:26.509Z,13.30
2017-08-19T01:09:52.574Z,12.70
2017-08-19T01:12:18.640Z,11.77
2017-08-19T01:14:44.685Z,8.60
2017-08-19T01:17:10.746Z,11.13
2017-08-19T01:19:36.801Z,11.70
2017-08-19T01:22:02.853Z,11.93
2017-08-19T01:24:29.664Z,9.30
2017-08-19T01:26:56.731Z,9.53
2017-08-19T01:29:22.837Z,8.80
2017-08-19T01:31:48.896Z,8.60
2017-08-19T01:34:14.965Z,6.87
2017-08-19T01:36:41.025Z,6.70
2017-08-19T01:39:07.821Z,8.00
2017-08-19T01:41:33.877Z,6.40
2017-08-19T01:43:59.953Z,7.20
2017-08-19T01:46:26.004Z,8.93
2017-08-19T01:48:52.097Z,8.00
2017-08-19T01:51:18.899Z,8.87
2017-08-19T01:53:44.961Z,8.50
2017-08-19T01:56:11.027Z,8.77
2017-08-19T01:58:37.081Z,9.27
2017-08-19T02:01:03.137Z,9.03
2017-08-19T02:03:29.209Z,9.73
2017-08-19T02:05:55.284Z,8.87
2017-08-19T02:08:21.336Z,8.67
2017-08-19T02:10:47.398Z,8.63
2017-08-19T02:13:13.449Z,9.40
2017-08-19T02:15:39.504Z,11.47
2017-08-19T02:18:05.620Z,11.33
2017-08-19T02:20:31.713Z,9.93
2017-08-19T02:22:57.758Z,14.30
2017-08-19T02:25:23.829Z,11.50
2017-08-19T02:27:49.879Z,16.00
2017-08-19T02:30:15.901Z,15.13
2017-08-19T02:32:41.946Z,15.50
2017-08-19T02:35:07.981Z,14.90
2017-08-19T02:37:34.021Z,11.90
2017-08-19T02:40:00.080Z,16.17
2017-08-19T02:42:26.126Z,18.33
2017-08-19T02:44:52.909Z,13.23
2017-08-19T02:47:18.981Z,17.47
2017-08-19T02:49:45.037Z,17.70
2017-08-19T02:52:11.105Z,14.43
2017-08-19T02:54:37.172Z,17.57
2017-08-19T02:57:03.233Z,17.73
2017-08-19T02:59:29.267Z,19.40
2017-08-19T03:01:55.325Z,16.50
2017-08-19T03:04:21.385Z,16.23
2017-08-19T03:06:47.443Z,16.80
2017-08-19T03:09:13.506Z,16.20
2017-08-19T03:11:39.560Z,15.60
2017-08-19T03:14:05.613Z,16.83
2017-08-19T03:16:31.667Z,15.10
2017-08-19T03:18:58.465Z,15.93
2017-08-19T03:21:24.605Z,15.87
2017-08-19T03:23:50.672Z,16.30
2017-08-19T03:26:16.733Z,16.77
2017-08-19T03:28:42.813Z,15.40
2017-08-19T03:31:09.609Z,17.60
2017-08-19T03:33:35.680Z,16.33
2017-08-19T03:36:01.740Z,16.50
2017-08-19T03:38:27.821Z,18.00
2017-08-19T03:40:53.857Z,13.20
2017-08-19T03:43:19.925Z,16.97
2017-08-19T03:45:45.977Z,17.27
2017-08-19T03:48:12.002Z,17.10
2017-08-19T03:50:38.053Z,17.97
2017-08-19T03:53:04.122Z,16.17
2017-08-19T03:55:30.161Z,15.73
2017-08-19T03:57:56.229Z,13.97
2017-08-19T04:00:22.290Z,16.07
2017-08-19T04:02:48.346Z,14.67
2017-08-19T04:05:14.389Z,14.50
2017-08-19T04:07:40.429Z,14.70
2017-08-19T04:10:06.477Z,14.47
2017-08-19T04:12:33.312Z,12.83
2017-08-19T04:14:59.350Z,13.43
2017-08-19T04:17:25.405Z,15.30
2017-08-19T04:19:51.452Z,10.00
2017-08-19T04:22:18.249Z,12.77
2017-08-19T04:24:44.285Z,11.97
2017-08-19T04:27:11.090Z,12.47
2017-08-19T04:29:37.898Z,10.47
2017-08-19T04:32:03.982Z,11.03
2017-08-19T04:34:30.056Z,9.90
2017-08-19T04:36:56.146Z,9.90
2017-08-19T04:39:22.201Z,10.97
2017-08-19T04:41:48.277Z,10.77
2017-08-19T04:44:14.313Z,8.77
2017-08-19T04:46:40.381Z,10.33
2017-08-19T04:49:06.436Z,8.80
2017-08-19T04:51:32.477Z,7.77
2017-08-19T04:53:58.523Z,8.87
2017-08-19T04:56:24.580Z,9.50
2017-08-19T04:58:50.629Z,11.00
2017-08-19T05:01:16.682Z,8.87
2017-08-19T05:03:42.756Z,8.30
2017-08-19T05:06:08.829Z,11.23
2017-08-19T05:08:34.885Z,10.60
2017-08-19T05:11:00.949Z,10.70
2017-08-19T05:13:26.994Z,9.80
2017-08-19T05:15:53.045Z,7.77
2017-08-19T05:18:19.109Z,11.13
2017-08-19T05:20:45.133Z,10.30
2017-08-19T05:23:11.905Z,7.53
2017-08-19T05:25:37.971Z,11.53
2017-08-19T05:28:04.006Z,13.40
2017-08-19T05:30:30.061Z,9.90
2017-08-19T05:32:56.100Z,8.30
2017-08-19T05:35:22.897Z,11.03
2017-08-19T05:37:48.925Z,9.20
2017-08-19T05:40:14.972Z,11.50
2017-08-19T05:42:41.066Z,11.03
2017-08-19T05:45:07.105Z,12.63
2017-08-19T05:47:33.177Z,10.87
2017-08-19T05:49:59.395Z,11.97
2017-08-19T05:52:25.441Z,10.90
2017-08-19T05:54:51.497Z,12.00
2017-08-19T05:57:17.529Z,9.73
2017-08-19T05:59:43.581Z,12.70
2017-08-19T06:02:09.638Z,10.37
2017-08-19T06:04:35.698Z,9.00
2017-08-19T06:07:01.764Z,8.83
2017-08-19T06:09:27.833Z,11.10
2017-08-19T06:11:53.890Z,11.40
2017-08-19T06:14:19.913Z,8.70
2017-08-19T06:16:46.008Z,8.13
2017-08-19T06:19:12.054Z,10.93
2017-08-19T06:21:38.120Z,9.93
2017-08-19T06:24:04.196Z,10.70
2017-08-19T06:26:30.230Z,12.10
2017-08-19T06:28:56.301Z,10.20
2017-08-19T06:31:22.332Z,9.60
2017-08-19T06:33:48.377Z,9.50
2017-08-19T06:36:14.393Z,8.37
2017-08-19T06:38:40.460Z,9.53
2017-08-19T06:41:06.493Z,8.20
2017-08-19T06:43:32.617Z,9.50
2017-08-19T06:45:58.657Z,10.17
2017-08-19T06:48:24.712Z,7.90
2017-08-19T06:50:50.779Z,7.57
2017-08-19T06:53:16.838Z,9.73
2017-08-19T06:55:42.885Z,8.37
2017-08-19T06:58:08.933Z,10.37
2017-08-19T07:00:35.718Z,7.40
2017-08-19T07:03:01.786Z,10.53
2017-08-19T07:05:27.824Z,10.03
2017-08-19T07:07:53.878Z,9.50
2017-08-19T07:10:20.660Z,12.07
2017-08-19T07:12:46.717Z,9.63
2017-08-19T07:15:13.501Z,7.50
2017-08-19T07:17:39.641Z,9.63
2017-08-19T07:20:06.456Z,10.50
2017-08-19T07:22:32.540Z,9.63
2017-08-19T07:24:58.644Z,8.00
2017-08-19T07:27:24.705Z,11.10
2017-08-19T07:29:50.793Z,13.80
2017-08-19T07:32:16.865Z,8.43
2017-08-19T07:34:42.952Z,10.53
2017-08-19T07:37:09.045Z,9.60
2017-08-19T07:39:35.994Z,8.50
2017-08-19T07:42:02.176Z,8.00
2017-08-19T07:44:29.013Z,9.40
2017-08-19T07:46:55.909Z,10.87
2017-08-19T07:49:21.992Z,9.43
2017-08-19T07:51:48.061Z,8.70
2017-08-19T07:54:14.115Z,11.10
2017-08-19T07:56:40.237Z,9.27
2017-08-19T07:59:06.293Z,9.17
2017-08-19T08:01:33.119Z,9.07
2017-08-19T08:03:59.159Z,8.20
2017-08-19T08:06:25.197Z,7.90
2017-08-19T08:08:51.253Z,7.00
2017-08-19T08:11:17.341Z,8.23
2017-08-19T08:13:43.396Z,7.60
2017-08-19T08:16:09.466Z,8.47
2017-08-19T08:18:35.563Z,6.67
2017-08-19T08:21:01.660Z,9.27
2017-08-19T08:23:27.715Z,7.00
2017-08-19T08:25:54.493Z,7.60
2017-08-19T08:28:20.565Z,8.03
2017-08-19T08:30:46.608Z,5.63
2017-08-19T08:33:12.644Z,6.77
2017-08-19T08:35:38.693Z,7.47
2017-08-19T08:38:04.760Z,6.80
2017-08-19T08:40:30.837Z,6.67
2017-08-19T08:42:56.892Z,8.20
2017-08-19T08:45:22.934Z,7.17
2017-08-19T08:47:49.001Z,8.57
2017-08-19T08:50:15.051Z,7.90
2017-08-19T08:52:41.144Z,6.97
2017-08-19T08:55:07.201Z,6.20
2017-08-19T08:57:33.273Z,6.97
2017-08-19T08:59:59.349Z,5.70
2017-08-19T09:02:26.149Z,6.20
2017-08-19T09:04:52.185Z,6.23
2017-08-19T09:07:18.236Z,6.03
2017-08-19T09:09:44.305Z,6.53
2017-08-19T09:12:11.137Z,6.20
2017-08-19T09:14:37.992Z,8.27
2017-08-19T09:17:04.045Z,5.60
2017-08-19T09:19:30.097Z,5.67
2017-08-19T09:21:56.893Z,7.27
2017-08-19T09:24:22.985Z,5.47
2017-08-19T09:26:49.041Z,5.27
2017-08-19T09:29:15.849Z,5.37
2017-08-19T09:31:41.921Z,6.43
2017-08-19T09:34:07.981Z,5.97
2017-08-19T09:36:34.785Z,6.30
2017-08-19T09:39:00.845Z,7.07
2017-08-19T09:41:26.937Z,5.40
2017-08-19T09:43:52.993Z,7.00
2017-08-19T09:46:19.039Z,3.93
2017-08-19T09:48:45.089Z,4.93
2017-08-19T09:51:11.156Z,3.70
2017-08-19T09:53:37.216Z,3.33
2017-08-19T09:56:03.265Z,3.63
2017-08-19T09:58:29.294Z,3.20
2017-08-19T10:00:56.090Z,3.90
2017-08-19T10:03:22.153Z,4.27
2017-08-19T10:05:48.237Z,3.40
2017-08-19T10:08:21.224Z,2.60
2017-08-19T10:10:54.513Z,4.10
2017-08-19T10:13:20.609Z,3.70
2017-08-19T10:15:46.681Z,3.20
2017-08-19T10:18:12.759Z,4.10
2017-08-19T10:20:38.890Z,6.07
2017-08-19T10:23:07.236Z,8.33
2017-08-19T10:25:34.177Z,6.93
2017-08-19T10:28:00.241Z,8.23
2017-08-19T10:30:26.307Z,8.10
2017-08-19T10:32:52.412Z,7.07
2017-08-19T10:35:19.281Z,6.40
2017-08-19T10:37:46.214Z,5.17
2017-08-19T10:40:12.613Z,7.00
2017-08-19T10:42:38.698Z,9.23
2017-08-19T10:45:04.798Z,9.73
2017-08-19T10:47:31.445Z,7.77
2017-08-19T10:49:57.493Z,8.63
2017-08-19T10:52:23.540Z,8.47
2017-08-19T10:54:49.636Z,9.20
2017-08-19T10:57:15.719Z,9.20
2017-08-19T10:59:41.825Z,5.50
2017-08-19T11:02:08.613Z,8.70
2017-08-19T11:04:34.673Z,8.50
2017-08-19T11:07:00.729Z,9.80
2017-08-19T11:09:26.791Z,9.93
2017-08-19T11:11:52.849Z,12.23
2017-08-19T11:14:18.904Z,8.93
2017-08-19T11:16:45.021Z,12.17
2017-08-19T11:19:11.176Z,11.37
2017-08-19T11:21:37.333Z,12.23
2017-08-19T11:24:03.422Z,14.50
2017-08-19T11:26:30.205Z,11.40
2017-08-19T11:28:56.266Z,11.70
2017-08-19T11:31:23.033Z,11.80
2017-08-19T11:33:49.148Z,10.80
2017-08-19T11:36:15.192Z,7.03
2017-08-19T11:38:41.264Z,8.87
2017-08-19T11:41:07.306Z,8.80
2017-08-19T11:43:33.352Z,10.47
2017-08-19T11:45:59.397Z,10.30
2017-08-19T11:48:25.425Z,10.03
2017-08-19T11:50:51.570Z,7.13
2017-08-19T11:53:18.345Z,7.20
2017-08-19T11:55:44.433Z,6.20
2017-08-19T11:58:10.457Z,7.73
2017-08-19T12:00:36.515Z,7.90
2017-08-19T12:03:02.613Z,7.33
2017-08-19T12:05:28.725Z,8.77
2017-08-19T12:07:54.789Z,6.80
2017-08-19T12:10:20.860Z,5.30
2017-08-19T12:12:46.885Z,9.23
2017-08-19T12:15:12.949Z,7.13
2017-08-19T12:17:39.746Z,7.10
2017-08-19T12:20:05.785Z,5.80
2017-08-19T12:22:31.933Z,6.67
2017-08-19T12:24:58.004Z,7.07
2017-08-19T12:27:24.801Z,7.40
2017-08-19T12:29:50.887Z,6.87
2017-08-19T12:32:16.946Z,7.37
2017-08-19T12:34:42.985Z,6.37
2017-08-19T12:37:09.050Z,7.93
2017-08-19T12:39:35.110Z,6.43
2017-08-19T12:42:01.202Z,7.13
2017-08-19T12:44:27.280Z,7.33
2017-08-19T12:46:53.359Z,7.63
2017-08-19T12:49:19.397Z,7.77
2017-08-19T12:51:45.563Z,5.77
2017-08-19T12:54:11.657Z,5.80
2017-08-19T12:56:37.729Z,6.40
2017-08-19T12:59:04.521Z,5.20
2017-08-19T13:01:30.585Z,6.50
2017-08-19T13:03:56.689Z,7.33
2017-08-19T13:06:23.513Z,5.70
2017-08-19T13:08:50.293Z,6.20
2017-08-19T13:11:16.349Z,4.90
2017-08-19T13:13:43.142Z,4.90
2017-08-19T13:16:09.177Z,5.50
2017-08-19T13:18:35.253Z,6.27
2017-08-19T13:21:01.327Z,4.93
2017-08-19T13:23:27.472Z,4.77
2017-08-19T13:25:53.545Z,4.50
2017-08-19T13:28:19.601Z,4.47
2017-08-19T13:30:45.626Z,3.87
2017-08-19T13:33:11.716Z,4.00
2017-08-19T13:35:37.784Z,3.80
2017-08-19T13:38:03.826Z,4.33
2017-08-19T13:40:29.909Z,4.00
2017-08-19T13:42:55.964Z,3.00
2017-08-19T13:45:22.024Z,3.33
2017-08-19T13:47:48.077Z,3.17
2017-08-19T13:50:14.164Z,3.50
2017-08-19T13:52:40.246Z,4.43
2017-08-19T13:55:06.347Z,4.50
2017-08-19T13:57:32.444Z,4.03
2017-08-19T13:59:59.232Z,3.97
2017-08-19T14:02:25.277Z,2.97
2017-08-19T14:04:52.105Z,3.73
2017-08-19T14:07:18.887Z,4.13
2017-08-19T14:09:44.981Z,4.30
2017-08-19T14:12:11.018Z,3.33
2017-08-19T14:14:37.068Z,3.70
2017-08-19T14:17:03.133Z,4.90
2017-08-19T14:19:29.194Z,5.40
2017-08-19T14:21:55.961Z,4.30
2017-08-19T14:24:22.016Z,4.43
2017-08-19T14:26:48.099Z,4.00
2017-08-19T14:29:14.270Z,4.70
2017-08-19T14:31:40.365Z,4.30
2017-08-19T14:34:06.444Z,4.87
2017-08-19T14:36:33.272Z,6.53
2017-08-19T14:38:59.342Z,4.43
2017-08-19T14:41:25.394Z,4.83
2017-08-19T14:43:51.452Z,5.00
2017-08-19T14:46:17.517Z,4.00
2017-08-19T14:48:43.554Z,4.20
2017-08-19T14:51:09.626Z,4.43
2017-08-19T14:53:35.689Z,5.07
2017-08-19T14:56:01.746Z,3.23
2017-08-19T14:58:27.798Z,3.33
2017-08-19T15:00:53.897Z,4.20
2017-08-19T15:03:19.966Z,3.53
2017-08-19T15:05:46.026Z,3.87
2017-08-19T15:08:12.065Z,4.07
2017-08-19T15:10:38.126Z,5.20
2017-08-19T15:13:04.204Z,4.70
2017-08-19T15:15:30.277Z,3.83
2017-08-19T15:17:56.345Z,3.63
2017-08-19T15:20:22.373Z,3.70
2017-08-19T15:22:48.441Z,4.00
2017-08-19T15:25:14.485Z,3.63
2017-08-19T15:27:40.543Z,3.47
2017-08-19T15:30:06.625Z,3.40
2017-08-19T15:32:32.697Z,3.73
2017-08-19T15:34:58.768Z,4.33
2017-08-19T15:37:24.825Z,3.57
2017-08-19T15:39:51.634Z,3.37
2017-08-19T15:42:17.733Z,3.37
2017-08-19T15:44:43.768Z,3.20
2017-08-19T15:47:10.569Z,3.80
2017-08-19T15:49:36.637Z,4.10
2017-08-19T15:52:02.730Z,3.33
2017-08-19T15:54:28.825Z,2.57
2017-08-19T15:56:55.598Z,2.10
2017-08-19T15:59:21.666Z,1.97
2017-08-19T16:01:47.725Z,2.30
2017-08-19T16:04:13.770Z,2.10
2017-08-19T16:06:40.573Z,2.03
2017-08-19T16:09:06.601Z,1.43
2017-08-19T16:11:32.655Z,1.77
2017-08-19T16:13:58.781Z,1.77
2017-08-19T16:16:24.843Z,2.23
2017-08-19T16:18:50.885Z,1.60
2017-08-19T16:21:16.926Z,1.57
2017-08-19T16:23:42.975Z,1.57
2017-08-19T16:26:09.041Z,1.77
2017-08-19T16:28:35.080Z,1.80
2017-08-19T16:31:01.882Z,2.10
2017-08-19T16:33:28.697Z,2.70
2017-08-19T16:35:54.749Z,2.93
2017-08-19T16:38:23.052Z,2.70
2017-08-19T16:40:49.112Z,2.73
2017-08-19T16:43:15.177Z,2.60
2017-08-19T16:45:41.260Z,3.00
2017-08-19T16:48:07.336Z,3.20
2017-08-19T16:50:34.118Z,4.67
2017-08-19T16:53:00.169Z,4.00
2017-08-19T16:55:26.947Z,3.83
2017-08-19T16:57:52.977Z,3.10
2017-08-19T17:00:19.085Z,3.00
2017-08-19T17:02:45.147Z,3.40
2017-08-19T17:05:11.913Z,3.53
2017-08-19T17:07:37.988Z,3.77
2017-08-19T17:10:04.034Z,5.03
2017-08-19T17:12:30.074Z,3.83
2017-08-19T17:14:56.133Z,5.23
2017-08-19T17:17:22.200Z,5.40
2017-08-19T17:19:48.977Z,5.33
2017-08-19T17:22:15.028Z,4.37
2017-08-19T17:24:41.810Z,4.50
2017-08-19T17:27:07.866Z,2.70
2017-08-19T17:29:33.917Z,2.87
2017-08-19T17:32:00.008Z,3.93
2017-08-19T17:34:26.069Z,4.13
2017-08-19T17:36:52.109Z,3.33
2017-08-19T17:39:18.159Z,2.50
2017-08-19T17:41:44.243Z,3.70
2017-08-19T17:44:10.349Z,3.40
2017-08-19T17:46:37.148Z,2.77
2017-08-19T17:49:03.211Z,2.80
2017-08-19T17:51:29.277Z,3.37
2017-08-19T17:53:56.087Z,3.30
2017-08-19T17:56:22.118Z,2.30
2017-08-19T17:58:48.164Z,3.00
2017-08-19T18:01:14.189Z,2.57
2017-08-19T18:03:40.253Z,2.10
2017-08-19T18:06:06.285Z,2.73
2017-08-19T18:08:32.315Z,2.80
2017-08-19T18:10:58.351Z,2.63
2017-08-19T18:13:24.397Z,2.60
2017-08-19T18:15:50.461Z,2.60
2017-08-19T18:18:16.530Z,1.93
2017-08-19T18:20:42.582Z,1.50
2017-08-19T18:23:08.656Z,4.00
2017-08-19T18:25:34.708Z,2.27
2017-08-19T18:28:00.782Z,3.03
2017-08-19T18:30:26.837Z,2.57
2017-08-19T18:32:52.882Z,2.80
2017-08-19T18:35:18.952Z,2.60
2017-08-19T18:37:45.001Z,2.33
2017-08-19T18:40:11.181Z,3.13
2017-08-19T18:42:38.005Z,2.80
2017-08-19T18:45:04.053Z,3.30
2017-08-19T18:47:30.082Z,3.43
2017-08-19T18:49:56.112Z,2.33
2017-08-19T18:52:22.166Z,2.57
2017-08-19T18:54:48.231Z,2.70
2017-08-19T18:57:14.257Z,2.57
2017-08-19T18:59:40.298Z,2.90
2017-08-19T19:02:06.364Z,2.70
2017-08-19T19:04:32.416Z,2.30
2017-08-19T19:06:58.466Z,2.77
2017-08-19T19:09:24.525Z,2.10
2017-08-19T19:11:50.571Z,2.90
2017-08-19T19:14:16.600Z,3.00
2017-08-19T19:16:42.637Z,3.10
2017-08-19T19:19:09.492Z,3.10
2017-08-19T19:21:35.548Z,2.53
2017-08-19T19:24:01.604Z,3.27
2017-08-19T19:26:27.681Z,3.07
2017-08-19T19:28:54.469Z,2.43
2017-08-19T19:31:20.528Z,3.07
2017-08-19T19:33:46.585Z,3.30
2017-08-19T19:36:12.641Z,3.70
2017-08-19T19:38:39.420Z,3.70
2017-08-19T19:41:05.501Z,3.60
2017-08-19T19:43:31.572Z,2.90
2017-08-19T19:45:58.365Z,3.40
2017-08-19T19:48:24.420Z,3.73
2017-08-19T19:50:50.461Z,3.70
2017-08-19T19:53:16.539Z,4.23
2017-08-19T19:55:42.591Z,4.10
2017-08-19T19:58:08.633Z,3.90
2017-08-19T20:00:34.682Z,3.60
2017-08-19T20:03:00.745Z,2.93
2017-08-19T20:05:26.818Z,2.90
2017-08-19T20:07:52.893Z,3.30
2017-08-19T20:10:19.686Z,4.50
2017-08-19T20:12:45.740Z,3.40
2017-08-19T20:15:11.768Z,2.80
2017-08-19T20:17:37.821Z,3.00
2017-08-19T20:20:03.890Z,4.50
2017-08-19T20:22:29.949Z,3.73
2017-08-19T20:24:55.985Z,2.97
2017-08-19T20:27:22.762Z,4.50
2017-08-19T20:29:48.789Z,3.60
2017-08-19T20:32:14.832Z,4.97
2017-08-19T20:34:41.609Z,4.23
2017-08-19T20:37:07.630Z,4.07
2017-08-19T20:39:33.665Z,4.47
2017-08-19T20:41:59.681Z,4.00
2017-08-19T20:44:25.717Z,4.20
2017-08-19T20:46:51.737Z,4.60
2017-08-19T20:49:17.789Z,4.87
2017-08-19T20:51:43.835Z,4.33
2017-08-19T20:54:09.905Z,6.30
2017-08-19T20:56:35.972Z,6.63
2017-08-19T20:59:02.010Z,4.80
2017-08-19T21:01:28.037Z,5.93
2017-08-19T21:03:54.813Z,4.80
2017-08-19T21:06:20.862Z,4.30
2017-08-19T21:08:46.893Z,4.97
2017-08-19T21:11:13.733Z,5.00
2017-08-19T21:13:40.489Z,4.97
2017-08-19T21:16:06.526Z,5.13
2017-08-19T21:18:32.574Z,5.23
2017-08-19T21:20:58.617Z,5.33
2017-08-19T21:23:24.650Z,5.63
2017-08-19T21:25:50.686Z,5.57
2017-08-19T21:28:16.713Z,6.17
2017-08-19T21:30:43.493Z,5.70
2017-08-19T21:33:09.548Z,6.10
2017-08-19T21:35:35.593Z,6.37
2017-08-19T21:38:01.641Z,6.30
2017-08-19T21:40:27.684Z,5.17
2017-08-19T21:42:53.705Z,5.90
2017-08-19T21:45:19.741Z,6.57
2017-08-19T21:47:45.781Z,5.90
2017-08-19T21:50:12.569Z,6.43
2017-08-19T21:52:38.616Z,6.53
2017-08-19T21:55:04.650Z,6.00
2017-08-19T21:57:30.686Z,5.63
2017-08-19T21:59:56.708Z,6.20
2017-08-19T22:02:22.753Z,5.90
2017-08-19T22:04:49.517Z,5.60
2017-08-19T22:07:15.550Z,5.30
2017-08-19T22:09:41.577Z,5.33
2017-08-19T22:12:07.609Z,5.97
2017-08-19T22:14:34.373Z,5.90
2017-08-19T22:17:00.405Z,5.70
2017-08-19T22:19:26.441Z,6.90
2017-08-19T22:21:53.232Z,6.30
2017-08-19T22:24:19.269Z,6.53
2017-08-19T22:26:45.302Z,6.33
2017-08-19T22:29:11.341Z,6.33
2017-08-19T22:31:37.410Z,7.10
2017-08-19T22:34:04.186Z,6.40
2017-08-19T22:36:30.233Z,7.90
2017-08-19T22:38:56.284Z,7.30
2017-08-19T22:41:22.332Z,7.37
2017-08-19T22:43:48.368Z,6.60
2017-08-19T22:46:14.405Z,7.13
2017-08-19T22:48:40.449Z,7.17
2017-08-19T22:51:06.478Z,6.27
2017-08-19T22:53:32.541Z,6.63
2017-08-19T22:55:58.594Z,6.70
2017-08-19T22:58:24.656Z,6.37
2017-08-19T23:00:50.689Z,7.10
2017-08-19T23:03:16.732Z,6.87
2017-08-19T23:05:43.528Z,7.17
2017-08-19T23:08:09.587Z,7.30
2017-08-19T23:10:36.357Z,6.97
2017-08-19T23:13:02.401Z,7.27
2017-08-19T23:15:28.435Z,7.33
2017-08-19T23:17:55.198Z,5.30
2017-08-19T23:20:21.239Z,6.20
2017-08-19T23:22:47.285Z,5.47
2017-08-19T23:25:13.346Z,5.50
2017-08-19T23:27:39.372Z,5.30
2017-08-19T23:30:05.417Z,5.33
2017-08-19T23:32:31.444Z,4.60
2017-08-19T23:34:57.493Z,3.83
2017-08-19T23:37:23.537Z,5.70
2017-08-19T23:39:49.602Z,5.17
2017-08-19T23:42:15.638Z,5.87
2017-08-19T23:44:42.442Z,5.30
2017-08-19T23:47:08.503Z,5.43
2017-08-19T23:49:34.532Z,5.50
2017-08-19T23:52:01.369Z,6.77
2017-08-19T23:54:27.392Z,5.40
2017-08-19T23:56:53.434Z,6.20
2017-08-19T23:59:19.497Z,5.73
